TFM - Tactical Decision Aid (Experimental) INFO Settings

ID: Runway Winds: CIG/VIS Threshold: METAR Board: Map:

KDFW - Dallas/Fort Worth Intl

Updated at: 0604 UTC 29 Mar 2015
Latest TAF at: 0524 UTC 29 Mar 2015

TAF Board

Time0553Z29/07Z29/08Z29/09Z29/10Z29/11Z29/12Z29/13Z29/14Z29/15Z29/16Z29/17Z29/18Z29/19Z
TypeOBSPRVLPRVLPRVLPRVLPRVLPRVLPRVLPRVLPRVLPRVLPRVLPRVLPRVL
VIS10>6>6>6>6>6>6>6>6>6>6>6>6>6
CIG----------------------------
CoverCLRSKCSKCSKCSKCSKCSKCSKCSKCSKCSKCSKCSKCSKC
FltCatVFRVFRVFRVFRVFRVFRVFRVFRVFRVFRVFRVFRVFRVFR
WX----------------------------
WDir150150150150150150150150150190190190190190
WSpd711111111111111111717171717
WGst------------------2828282828
TAF
KDFW 290524Z 2906/3012 15011KT P6SM SKC
  FM291500 19017G28KT P6SM SKC
  FM300000 15008KT P6SM BKN300
  FM301000 13007KT P6SM BKN015


METAR
KDFW 290553Z 15007KT 10SM CLR 18/07 A3000 RMK AO2 SLP151 T01830072 10261 20183 402720072 53003
KDFW 290453Z 16010KT 10SM CLR 20/07 A2999 RMK AO2 SLP149 T02000067

TAF/METAR Board Legend

Potential Impact
  None Marginal Slight Moderate High
Visibility (sm) >5 3≤X≤5 1≤X<3 0.5≤X<1 <0.5
Ceiling (100 ft) >30 10≤X≤30 4≤X<10 2≤X<4 <2
Wind Speed (kt) <10 10≤X<20 20≤X<30 ≥30
Wind Gust (kt) <15 15≤X<25 25≤X<35 ≥35
Weather No Wx Reported VCTS -TS,-FZRA TS,FZRA +TS,+FZRA